Αρχική σελίδα
METAR-TAF:

METAR-TAF

Αεροδρόμια :

Derby Field

Lovelock, Νεβάδα, Ηνωμένες Πολιτείες Αμερικής

γεωγραφικό πλάτος: 40-03-59N, γεωγραφικό μήκος: 118-33-55W, υψόμετρο: 1190 μ

Παρών καιρός

Η αναφορά έγινε 20 λεπτά πριν, στις 23:53 UTC
Άνεμος 7 kt από Ν
Θερμοκρασία 35°C
Υγρασία 18%
Πίεση 1019 hPa
Ορατότητα: 16.1 χλμ
Καθαρός ουρανός

METAR: KLOL 222353Z AUTO 18007KT 10SM CLR 35/07 A3010 RMK AO2 SLP147 T03500072 10361 20300 56015

Χρόνος: 17:13 (00:13 UTC)


TAF: λείπει

Μετεωρολογικές αναφορές και προγνώσεις για περισσότερα από 4000 αεροδρόμια (δελτία METAR και TAF).

Οι διαθέσιμοι σταθμοί απεικονίζονται στο χάρτη με κίτρινες και κόκκινες κουκκίδες.

Μετακινήστε το ποντίκι πάνω από τις κουκκίδες για να δείτε το όνομα του σταθμού.

Στη συνέχεια, κάντε κλικ για να δείτε τις μετεωρολογικές αναφορές και τις προγνώσεις καιρού.

Για να αλλάξετε το χάρτη: κάντε κλικ στα πράσινα κουμπιά με τον μαύρο σταυρό για να ζουμάρετε, στο πράσινο κουμπί με την παύλα για να αφαιρέσετε το ζουμ ή στα πράσινα βέλη για να αντιπαραβάλλετε χάρτες.


METAR-TAF: